Portada
METAR-TAF:

METAR-TAF

Aeropuertos :

Rafha, Arabia Saudita

latitud: 29-37N, longitud: 043-29E, altitud: 449 m

Observación

El informe se hizo hace 40 minutos, a las 01:00 UTC
Viento 2 kt del sur-sureste
Temperatura 25°C
Humedad 12%
Presión 1006 hPa
Visibilidad 10 km o más
sin nubes por debajo de 1500 m y sin presencia de cumulonimbus.

METAR: OERF 030100Z 15002KT CAVOK 25/M06 Q1006

Hora: 04:40 (01:40 UTC)

Pronóstico

El informe se hizo hace 2 horas y 40 minutos, a las 23:00 UTC
Pronóstico válido del 03 a las 00 UTC al 04 a las 06 UTC
Viento 4 kt con dirección variable
Visibilidad: 7000 m
Evolucionando progresivamente
del 03 a las 06 UTC al 03 a las 08 UTC
Viento 12 kt del norte-noroeste
Temporalmente
del 03 a las 09 UTC al 03 a las 15 UTC
Visibilidad: 4000 m
Ventisca alta de polvo

TAF: OERF 022300Z 0300/0406 VRB04KT 7000 NSC BECMG 0306/0308 33012KT TEMPO 0309/0315 4000 BLDU

Observaciones y pronósticos meteorológicos de más de 4000 aeropuertos (mensajes METAR y TAF).

Los puntos amarillos y rojos representan las estaciones disponibles.

Ponga el ratón en el punto deseado para ver el nombre de la estación.

Haga clic para ver las observaciones y los pronósticos meteorológicos.

Para cambiar el mapa : haga clic en los botones verdes con una cruz de color negro para hacer un zoom, en el botón verde con un guión para alejar o en las flechas verdes para mapas adyacentes.


METAR-TAF: